sensor_id;sensor_type;location;lat;lon;timestamp;P1;P2;P0
58740;PMS7003;44512;53.046;18.604;2023-02-10T00:04:21;47;37;24
58740;PMS7003;44512;53.046;18.604;2023-02-10T00:14:49;43;34;23
58740;PMS7003;44512;53.046;18.604;2023-02-10T00:25:18;43;33;23
58740;PMS7003;44512;53.046;18.604;2023-02-10T00:35:46;40;33;22
58740;PMS7003;44512;53.046;18.604;2023-02-10T00:46:15;41;31;23
58740;PMS7003;44512;53.046;18.604;2023-02-10T00:56:43;34;29;21
58740;PMS7003;44512;53.046;18.604;2023-02-10T01:07:12;34;27;18
58740;PMS7003;44512;53.046;18.604;2023-02-10T01:17:40;36;27;19
58740;PMS7003;44512;53.046;18.604;2023-02-10T01:28:09;38;28;20
58740;PMS7003;44512;53.046;18.604;2023-02-10T01:38:37;34;29;19
58740;PMS7003;44512;53.046;18.604;2023-02-10T01:49:09;30;25;17
58740;PMS7003;44512;53.046;18.604;2023-02-10T01:59:35;27;22;16
58740;PMS7003;44512;53.046;18.604;2023-02-10T02:10:04;28;25;18
58740;PMS7003;44512;53.046;18.604;2023-02-10T02:20:43;31;25;17
58740;PMS7003;44512;53.046;18.604;2023-02-10T02:41:28;34;22;15
58740;PMS7003;44512;53.046;18.604;2023-02-10T02:51:59;26;20;14
58740;PMS7003;44512;53.046;18.604;2023-02-10T03:02:25;27;22;15
58740;PMS7003;44512;53.046;18.604;2023-02-10T03:12:53;28;23;17
58740;PMS7003;44512;53.046;18.604;2023-02-10T03:23:22;27;19;14
58740;PMS7003;44512;53.046;18.604;2023-02-10T03:33:50;26;22;17
58740;PMS7003;44512;53.046;18.604;2023-02-10T03:44:18;30;23;16
58740;PMS7003;44512;53.046;18.604;2023-02-10T03:54:47;30;22;16
58740;PMS7003;44512;53.046;18.604;2023-02-10T04:05:15;28;24;18
58740;PMS7003;44512;53.046;18.604;2023-02-10T04:15:44;28;22;15
58740;PMS7003;44512;53.046;18.604;2023-02-10T04:26:12;28;23;15
58740;PMS7003;44512;53.046;18.604;2023-02-10T04:36:40;30;24;16
58740;PMS7003;44512;53.046;18.604;2023-02-10T04:47:09;31;24;16
58740;PMS7003;44512;53.046;18.604;2023-02-10T04:57:37;30;23;16
58740;PMS7003;44512;53.046;18.604;2023-02-10T05:08:06;29;24;17
58740;PMS7003;44512;53.046;18.604;2023-02-10T05:18:35;32;24;17
58740;PMS7003;44512;53.046;18.604;2023-02-10T05:29:03;32;26;17
58740;PMS7003;44512;53.046;18.604;2023-02-10T05:39:31;31;25;17
58740;PMS7003;44512;53.046;18.604;2023-02-10T05:50:00;34;25;18
58740;PMS7003;44512;53.046;18.604;2023-02-10T06:00:28;33;24;17
58740;PMS7003;44512;53.046;18.604;2023-02-10T06:10:57;34;26;20
58740;PMS7003;44512;53.046;18.604;2023-02-10T06:21:25;35;26;20
58740;PMS7003;44512;53.046;18.604;2023-02-10T06:31:54;30;25;18
58740;PMS7003;44512;53.046;18.604;2023-02-10T06:42:22;38;29;19
58740;PMS7003;44512;53.046;18.604;2023-02-10T06:52:50;31;23;18
58740;PMS7003;44512;53.046;18.604;2023-02-10T07:03:19;32;26;19
58740;PMS7003;44512;53.046;18.604;2023-02-10T07:13:47;27;21;16
58740;PMS7003;44512;53.046;18.604;2023-02-10T07:24:16;29;23;16
58740;PMS7003;44512;53.046;18.604;2023-02-10T07:34:45;39;27;18
58740;PMS7003;44512;53.046;18.604;2023-02-10T07:45:13;44;33;24
58740;PMS7003;44512;53.046;18.604;2023-02-10T07:55:41;45;34;23
58740;PMS7003;44512;53.046;18.604;2023-02-10T08:06:10;42;35;21
58740;PMS7003;44512;53.046;18.604;2023-02-10T08:16:38;34;29;21
58740;PMS7003;44512;53.046;18.604;2023-02-10T08:27:07;38;29;19
58740;PMS7003;44512;53.046;18.604;2023-02-10T08:37:35;41;31;21
58740;PMS7003;44512;53.046;18.604;2023-02-10T08:48:04;43;35;23
58740;PMS7003;44512;53.046;18.604;2023-02-10T08:58:32;49;40;26
58740;PMS7003;44512;53.046;18.604;2023-02-10T09:09:01;46;33;23
58740;PMS7003;44512;53.046;18.604;2023-02-10T09:19:29;36;30;20
58740;PMS7003;44512;53.046;18.604;2023-02-10T09:35:02;41;31;22
58740;PMS7003;44512;53.046;18.604;2023-02-10T09:45:35;41;29;20
58740;PMS7003;44512;53.046;18.604;2023-02-10T09:55:59;40;30;20
58740;PMS7003;44512;53.046;18.604;2023-02-10T10:06:28;43;31;21
58740;PMS7003;44512;53.046;18.604;2023-02-10T10:37:52;42;31;21
58740;PMS7003;44512;53.046;18.604;2023-02-10T10:48:22;47;36;23
58740;PMS7003;44512;53.046;18.604;2023-02-10T10:58:49;51;40;25
58740;PMS7003;44512;53.046;18.604;2023-02-10T11:09:22;49;35;25
58740;PMS7003;44512;53.046;18.604;2023-02-10T11:30:25;50;38;25
58740;PMS7003;44512;53.046;18.604;2023-02-10T11:51:15;50;37;24
58740;PMS7003;44512;53.046;18.604;2023-02-10T12:01:43;45;35;22
58740;PMS7003;44512;53.046;18.604;2023-02-10T12:22:42;44;36;22
58740;PMS7003;44512;53.046;18.604;2023-02-10T12:33:10;50;38;25
58740;PMS7003;44512;53.046;18.604;2023-02-10T12:43:38;40;32;21
58740;PMS7003;44512;53.046;18.604;2023-02-10T12:54:06;45;36;24
58740;PMS7003;44512;53.046;18.604;2023-02-10T13:04:36;52;39;26
58740;PMS7003;44512;53.046;18.604;2023-02-10T13:35:56;59;44;28
58740;PMS7003;44512;53.046;18.604;2023-02-10T13:46:28;52;37;24
58740;PMS7003;44512;53.046;18.604;2023-02-10T13:56:53;54;41;27
58740;PMS7003;44512;53.046;18.604;2023-02-10T14:28:22;53;39;26
58740;PMS7003;44512;53.046;18.604;2023-02-10T14:49:18;45;36;24
58740;PMS7003;44512;53.046;18.604;2023-02-10T14:59:44;53;39;25
58740;PMS7003;44512;53.046;18.604;2023-02-10T15:10:18;56;42;28
58740;PMS7003;44512;53.046;18.604;2023-02-10T15:20:49;58;41;27
58740;PMS7003;44512;53.046;18.604;2023-02-10T15:41:42;52;42;27
58740;PMS7003;44512;53.046;18.604;2023-02-10T15:52:10;52;40;27
58740;PMS7003;44512;53.046;18.604;2023-02-10T16:02:34;54;40;25
58740;PMS7003;44512;53.046;18.604;2023-02-10T16:13:03;57;39;26
58740;PMS7003;44512;53.046;18.604;2023-02-10T16:23:31;58;44;29
58740;PMS7003;44512;53.046;18.604;2023-02-10T16:34:00;57;46;29
58740;PMS7003;44512;53.046;18.604;2023-02-10T16:44:28;57;42;28
58740;PMS7003;44512;53.046;18.604;2023-02-10T16:54:57;52;39;26
58740;PMS7003;44512;53.046;18.604;2023-02-10T17:05:25;50;40;26
58740;PMS7003;44512;53.046;18.604;2023-02-10T17:15:54;47;38;26
58740;PMS7003;44512;53.046;18.604;2023-02-10T17:26:22;51;39;27
58740;PMS7003;44512;53.046;18.604;2023-02-10T17:36:51;50;37;23
58740;PMS7003;44512;53.046;18.604;2023-02-10T17:47:19;45;37;24
58740;PMS7003;44512;53.046;18.604;2023-02-10T17:57:47;47;36;24
58740;PMS7003;44512;53.046;18.604;2023-02-10T18:08:16;50;39;25
58740;PMS7003;44512;53.046;18.604;2023-02-10T18:18:44;50;35;23
58740;PMS7003;44512;53.046;18.604;2023-02-10T18:29:13;55;40;27
58740;PMS7003;44512;53.046;18.604;2023-02-10T18:39:43;52;40;27
58740;PMS7003;44512;53.046;18.604;2023-02-10T18:50:10;51;42;28
58740;PMS7003;44512;53.046;18.604;2023-02-10T19:00:38;57;43;28
58740;PMS7003;44512;53.046;18.604;2023-02-10T19:11:07;58;41;27
58740;PMS7003;44512;53.046;18.604;2023-02-10T19:21:35;56;42;26
58740;PMS7003;44512;53.046;18.604;2023-02-10T19:32:04;61;47;31
58740;PMS7003;44512;53.046;18.604;2023-02-10T19:42:32;65;48;32
58740;PMS7003;44512;53.046;18.604;2023-02-10T19:53:00;63;47;32
58740;PMS7003;44512;53.046;18.604;2023-02-10T20:03:29;61;46;30
58740;PMS7003;44512;53.046;18.604;2023-02-10T20:13:57;59;43;30
58740;PMS7003;44512;53.046;18.604;2023-02-10T20:24:26;60;46;30
58740;PMS7003;44512;53.046;18.604;2023-02-10T20:34:54;54;41;28
58740;PMS7003;44512;53.046;18.604;2023-02-10T20:45:23;62;46;29
58740;PMS7003;44512;53.046;18.604;2023-02-10T20:55:51;56;43;29
58740;PMS7003;44512;53.046;18.604;2023-02-10T21:06:21;59;45;29
58740;PMS7003;44512;53.046;18.604;2023-02-10T21:16:48;60;45;28
58740;PMS7003;44512;53.046;18.604;2023-02-10T21:27:17;51;40;25
58740;PMS7003;44512;53.046;18.604;2023-02-10T21:37:45;47;37;25
58740;PMS7003;44512;53.046;18.604;2023-02-10T21:48:13;46;37;25
58740;PMS7003;44512;53.046;18.604;2023-02-10T21:58:42;43;33;23
58740;PMS7003;44512;53.046;18.604;2023-02-10T22:09:12;42;33;23
58740;PMS7003;44512;53.046;18.604;2023-02-10T22:19:39;54;37;25
58740;PMS7003;44512;53.046;18.604;2023-02-10T22:30:08;44;34;21
58740;PMS7003;44512;53.046;18.604;2023-02-10T22:40:38;45;35;24
58740;PMS7003;44512;53.046;18.604;2023-02-10T23:01:34;50;38;24
58740;PMS7003;44512;53.046;18.604;2023-02-10T23:12:02;49;37;22
58740;PMS7003;44512;53.046;18.604;2023-02-10T23:22:29;58;39;27
58740;PMS7003;44512;53.046;18.604;2023-02-10T23:32:58;50;39;24
58740;PMS7003;44512;53.046;18.604;2023-02-10T23:43:26;44;38;24
58740;PMS7003;44512;53.046;18.604;2023-02-10T23:53:56;50;37;24
